Time;durP1;ratioP1;P1;durP2;ratioP2;P2;SDS_P1;SDS_P2;PMS_P1;PMS_P2;Temp;Humidity;BMP_temperature;BMP_pressure;BME280_temperature;BME280_humidity;BME280_pressure;Samples;Min_cycle;Max_cycle;Signal;HPM_P1;HPM_P2
2022/07/10 00:00:11;;;;;;;;;;;;;;;;;;1042297;28;3791;-50
2022/07/10 00:00:57;;;;;;;;;;;;;;;;;;1043419;28;3987;-50
2022/07/10 00:01:27;;;;;;;;;;;;;;;;;;1042146;28;3632;-53
2022/07/10 00:01:57;;;;;;;;;;;;;;;;;;1043305;28;4704;-48
2022/07/10 00:02:28;;;;;;;;;;;;;;;;;;1042438;28;3352;-52
2022/07/10 00:02:58;;;;;;;;;;;;;;;;;;1043835;28;3953;-53
2022/07/10 00:03:28;;;;;;;;;;;;;;;;;;1038793;28;2965;-47
2022/07/10 00:03:59;;;;;;;;;;;;;;;;;;1038849;28;4035;-53
2022/07/10 00:04:29;;;;;;;;;;;;;;;;;;1038751;28;3328;-52
2022/07/10 00:04:59;;;;;;;;;;;;;;;;;;1038695;28;4050;-52
2022/07/10 00:05:30;;;;;;;;;;;;;;;;;;1044205;28;2822;-51
2022/07/10 00:06:01;;;;;;;;;;;;;;;;;;1043099;28;4081;-49
2022/07/10 00:06:31;;;;;;;;;;;;;;;;;;1042936;28;2426;-49
2022/07/10 00:07:02;;;;;;;;;;;;;;;;;;1041927;28;3788;-51
2022/07/10 00:07:33;;;;;;;;;;;;;;;;;;1044715;28;3277;-54
2022/07/10 00:08:03;;;;;;;;;;;;;;;;;;1043054;28;4527;-50
2022/07/10 00:08:33;;;;;;;;;;;;;;;;;;1044587;28;1710;-48
2022/07/10 00:09:04;;;;;;;;;;;;;;;;;;1044974;28;3928;-49
2022/07/10 00:09:34;;;;;;;;;;;;;;;;;;1043113;28;4112;-53
2022/07/10 00:10:05;;;;;;;;;;;;;;;;;;1044308;28;4295;-53
2022/07/10 00:10:36;;;;;;;;;;;;;;;;;;1043505;28;2463;-51
2022/07/10 00:11:06;;;;;;;;;;;;;;;;;;1043178;28;4485;-53
2022/07/10 00:11:37;;;;;;;;;;;;;;;;;;1043367;28;3849;-50
2022/07/10 00:12:07;;;;;;;;;;;;;;;;;;1040176;28;4261;-50
2022/07/10 00:12:37;;;;;;;;;;;;;;;;;;1036773;28;1977;-49
2022/07/10 00:13:07;;;;;;;;;;;;;;;;;;1036506;28;4424;-50
2022/07/10 00:13:38;;;;;;;;;;;;;;;;;;1036490;28;3042;-52
2022/07/10 00:14:08;;;;;;;;;;;;;;;;;;1040172;28;3817;-52
2022/07/10 00:14:38;;;;;;;;;;;;;;;;;;1044243;28;3518;-52
2022/07/10 00:15:09;;;;;;;;;;;;;;;;;;1044991;28;3982;-54
2022/07/10 00:15:39;;;;;;;;;;;;;;;;;;1044634;28;3226;-52
2022/07/10 00:16:09;;;;;;;;;;;;;;;;;;1043863;28;3807;-50
2022/07/10 00:16:40;;;;;;;;;;;;;;;;;;1039154;28;3354;-52
2022/07/10 00:17:10;;;;;;;;;;;;;;;;;;1039513;28;3968;-52
2022/07/10 00:17:42;;;;;;;;;;;;;;;;;;1035788;28;3618;-50
2022/07/10 00:18:12;;;;;;;;;;;;;;;;;;1035218;28;3825;-51
2022/07/10 00:18:42;;;;;;;;;;;;;;;;;;1039115;28;3757;-49
2022/07/10 00:19:12;;;;;;;;;;;;;;;;;;1037375;28;4039;-50
2022/07/10 00:19:43;;;;;;;;;;;;;;;;;;1044375;28;1981;-52
2022/07/10 00:20:14;;;;;;;;;;;;;;;;;;1043400;28;3914;-49
2022/07/10 00:20:44;;;;;;;;;;;;;;;;;;1040961;28;1696;-50
2022/07/10 00:21:14;;;;;;;;;;;;;;;;;;1038416;28;4577;-50
2022/07/10 00:21:45;;;;;;;;;;;;;;;;;;1039234;28;3820;-51
2022/07/10 00:22:15;;;;;;;;;;;;;;;;;;1040427;28;4146;-53
2022/07/10 00:22:45;;;;;;;;;;;;;;;;;;1044229;28;2870;-51
2022/07/10 00:23:15;;;;;;;;;;;;;;;;;;1043986;28;4093;-55
2022/07/10 00:23:46;;;;;;;;;;;;;;;;;;1038385;28;2561;-52
2022/07/10 00:24:16;;;;;;;;;;;;;;;;;;1039731;28;4047;-52
2022/07/10 00:24:46;;;;;;;;;;;;;;;;;;1037735;28;2978;-53
2022/07/10 00:25:17;;;;;;;;;;;;;;;;;;1039226;28;4105;-52
2022/07/10 00:25:47;;;;;;;;;;;;;;;;;;1044192;28;1695;-53
2022/07/10 00:26:17;;;;;;;;;;;;;;;;;;1038922;28;4146;-49
2022/07/10 00:26:48;;;;;;;;;;;;;;;;;;1037821;28;4208;-49
2022/07/10 00:27:18;;;;;;;;;;;;;;;;;;1035154;28;4346;-53
2022/07/10 00:27:48;;;;;;;;;;;;;;;;;;1034517;28;1642;-50
2022/07/10 00:28:19;;;;;;;;;;;;;;;;;;1039864;28;4040;-48
2022/07/10 00:28:49;;;;;;;;;;;;;;;;;;1038917;28;2821;-53
2022/07/10 00:29:19;;;;;;;;;;;;;;;;;;1044176;28;3899;-52
2022/07/10 00:29:49;;;;;;;;;;;;;;;;;;1045288;28;2066;-51
2022/07/10 00:30:20;;;;;;;;;;;;;;;;;;1043394;28;3876;-49
2022/07/10 00:30:50;;;;;;;;;;;;;;;;;;1044570;28;2986;-50
2022/07/10 00:31:20;;;;;;;;;;;;;;;;;;1044015;28;3946;-51
2022/07/10 00:31:51;;;;;;;;;;;;;;;;;;1044395;28;3173;-49
2022/07/10 00:32:21;;;;;;;;;;;;;;;;;;1043080;28;3925;-49
2022/07/10 00:32:52;;;;;;;;;;;;;;;;;;1045269;28;1726;-53
2022/07/10 00:33:22;;;;;;;;;;;;;;;;;;1043337;28;4003;-49
2022/07/10 00:33:59;;;;;;;;;;;;;;;;;;1043512;28;3789;-50
2022/07/10 00:34:29;;;;;;;;;;;;;;;;;;1044035;28;1950;-54
2022/07/10 00:35:01;;;;;;;;;;;;;;;;;;1041854;28;3955;-51
2022/07/10 00:35:32;;;;;;;;;;;;;;;;;;1040245;28;3030;-51
2022/07/10 00:36:02;;;;;;;;;;;;;;;;;;1040478;28;4222;-51
2022/07/10 00:36:32;;;;;;;;;;;;;;;;;;1039848;28;3521;-50
2022/07/10 00:37:04;;;;;;;;;;;;;;;;;;1038567;28;3965;-50
2022/07/10 00:37:34;;;;;;;;;;;;;;;;;;1043205;28;3470;-51
2022/07/10 00:38:04;;;;;;;;;;;;;;;;;;1044533;28;4086;-50
2022/07/10 00:38:35;;;;;;;;;;;;;;;;;;1043222;28;3274;-50
2022/07/10 00:39:05;;;;;;;;;;;;;;;;;;1044055;28;3822;-52
2022/07/10 00:39:36;;;;;;;;;;;;;;;;;;1038363;28;3716;-51
2022/07/10 00:40:07;;;;;;;;;;;;;;;;;;1041245;28;3965;-55
2022/07/10 00:40:37;;;;;;;;;;;;;;;;;;1040175;28;3091;-51
2022/07/10 00:41:07;;;;;;;;;;;;;;;;;;1040946;28;4232;-49
2022/07/10 00:41:37;;;;;;;;;;;;;;;;;;1045079;28;3538;-54
2022/07/10 00:42:09;;;;;;;;;;;;;;;;;;1044677;28;4052;-51
2022/07/10 00:42:39;;;;;;;;;;;;;;;;;;1044806;28;2177;-52
2022/07/10 00:43:10;;;;;;;;;;;;;;;;;;1042355;28;3778;-50
2022/07/10 00:43:59;;;;;;;;;;;;;;;;;;1040625;28;1789;-49
2022/07/10 00:44:29;;;;;;;;;;;;;;;;;;1036101;28;6692;-49
2022/07/10 00:44:59;;;;;;;;;;;;;;;;;;1035996;28;4833;-50
2022/07/10 00:45:30;;;;;;;;;;;;;;;;;;1038762;28;3354;-51
2022/07/10 00:46:00;;;;;;;;;;;;;;;;;;1040552;28;3902;-52
2022/07/10 00:46:31;;;;;;;;;;;;;;;;;;1044586;28;2244;-52
2022/07/10 00:47:02;;;;;;;;;;;;;;;;;;1045129;28;4228;-53
2022/07/10 00:47:32;;;;;;;;;;;;;;;;;;1044640;28;1611;-55
2022/07/10 00:48:03;;;;;;;;;;;;;;;;;;1045112;28;4110;-50
2022/07/10 00:48:33;;;;;;;;;;;;;;;;;;1043874;28;3770;-53
2022/07/10 00:49:03;;;;;;;;;;;;;;;;;;1044714;28;3905;-49
2022/07/10 00:49:34;;;;;;;;;;;;;;;;;;1045161;28;1384;-50
2022/07/10 00:50:06;;;;;;;;;;;;;;;;;;1045113;28;4222;-51
2022/07/10 00:50:43;;;;;;;;;;;;;;;;;;1043379;28;3435;-53
2022/07/10 00:51:21;;;;;;;;;;;;;;;;;;1040181;28;3887;-52
2022/07/10 00:51:59;;;;;;;;;;;;;;;;;;1039887;28;3979;-53
2022/07/10 00:52:30;;;;;;;;;;;;;;;;;;1039729;28;3842;-53
2022/07/10 00:53:00;;;;;;;;;;;;;;;;;;1043018;28;3966;-52
2022/07/10 00:53:30;;;;;;;;;;;;;;;;;;1046214;28;1752;-54
2022/07/10 00:54:01;;;;;;;;;;;;;;;;;;1044113;28;5057;-51
2022/07/10 00:54:32;;;;;;;;;;;;;;;;;;1044398;28;2683;-47
2022/07/10 00:55:03;;;;;;;;;;;;;;;;;;1043109;28;3809;-50
2022/07/10 00:55:35;;;;;;;;;;;;;;;;;;1042266;28;3458;-54
2022/07/10 00:56:06;;;;;;;;;;;;;;;;;;1041383;28;3904;-51
2022/07/10 00:56:37;;;;;;;;;;;;;;;;;;1041154;28;3201;-53
2022/07/10 00:57:07;;;;;;;;;;;;;;;;;;1039906;28;4066;-52
2022/07/10 00:57:39;;;;;;;;;;;;;;;;;;1045800;28;4099;-51
2022/07/10 00:58:10;;;;;;;;;;;;;;;;;;1040220;28;4399;-54
2022/07/10 00:58:47;;;;;;;;;;;;;;;;;;1042052;28;3885;-52
2022/07/10 00:59:18;;;;;;;;;;;;;;;;;;1040937;28;4131;-53
2022/07/10 00:59:49;;;;;;;;;;;;;;;;;;1042625;28;1203;-54
2022/07/10 01:00:20;;;;;;;;;;;;;;;;;;1039808;28;3869;-49
2022/07/10 01:00:50;;;;;;;;;;;;;;;;;;1041261;28;3803;-52
2022/07/10 01:01:22;;;;;;;;;;;;;;;;;;1039916;28;4032;-51
2022/07/10 01:01:52;;;;;;;;;;;;;;;;;;1040253;28;3982;-53
2022/07/10 01:02:23;;;;;;;;;;;;;;;;;;1044096;28;3597;-52
2022/07/10 01:02:53;;;;;;;;;;;;;;;;;;1045176;28;3793;-49
2022/07/10 01:03:24;;;;;;;;;;;;;;;;;;1044589;28;3183;-55
2022/07/10 01:03:54;;;;;;;;;;;;;;;;;;1040414;28;3795;-52
2022/07/10 01:04:24;;;;;;;;;;;;;;;;;;1039840;28;3830;-54
2022/07/10 01:04:57;;;;;;;;;;;;;;;;;;1041319;28;4107;-50
2022/07/10 01:05:27;;;;;;;;;;;;;;;;;;1040334;28;2856;-48
2022/07/10 01:05:58;;;;;;;;;;;;;;;;;;1045280;28;3995;-49
2022/07/10 01:06:28;;;;;;;;;;;;;;;;;;1043925;28;2514;-55
2022/07/10 01:06:58;;;;;;;;;;;;;;;;;;1043812;28;3795;-53
2022/07/10 01:07:31;;;;;;;;;;;;;;;;;;1044814;28;2882;-48
2022/07/10 01:08:01;;;;;;;;;;;;;;;;;;1044790;28;4457;-52
2022/07/10 01:08:32;;;;;;;;;;;;;;;;;;1043325;28;3348;-54
2022/07/10 01:09:03;;;;;;;;;;;;;;;;;;1044701;28;4052;-53
2022/07/10 01:09:33;;;;;;;;;;;;;;;;;;1045367;28;3463;-51
2022/07/10 01:10:04;;;;;;;;;;;;;;;;;;1044946;28;4127;-50
2022/07/10 01:10:34;;;;;;;;;;;;;;;;;;1045229;28;1544;-52
2022/07/10 01:11:05;;;;;;;;;;;;;;;;;;1045597;28;4082;-52
2022/07/10 01:11:36;;;;;;;;;;;;;;;;;;1042137;28;1829;-52
2022/07/10 01:12:06;;;;;;;;;;;;;;;;;;1041341;28;3854;-52
2022/07/10 01:12:37;;;;;;;;;;;;;;;;;;1039756;28;2987;-48
2022/07/10 01:13:08;;;;;;;;;;;;;;;;;;1040859;28;3990;-51
2022/07/10 01:13:38;;;;;;;;;;;;;;;;;;1043120;28;3323;-49
2022/07/10 01:14:09;;;;;;;;;;;;;;;;;;1038863;28;4515;-49
2022/07/10 01:14:40;;;;;;;;;;;;;;;;;;1040017;28;3246;-53
2022/07/10 01:15:11;;;;;;;;;;;;;;;;;;1029797;28;4337;-50
2022/07/10 01:15:41;;;;;;;;;;;;;;;;;;1032722;28;1489;-52
2022/07/10 01:16:12;;;;;;;;;;;;;;;;;;1033314;28;4565;-50
2022/07/10 01:16:42;;;;;;;;;;;;;;;;;;1032979;28;3166;-49
2022/07/10 01:17:13;;;;;;;;;;;;;;;;;;1040868;28;4070;-51
2022/07/10 01:17:43;;;;;;;;;;;;;;;;;;1041688;28;2192;-51
2022/07/10 01:18:14;;;;;;;;;;;;;;;;;;1043968;28;3843;-49
2022/07/10 01:18:44;;;;;;;;;;;;;;;;;;1045194;28;3738;-52
2022/07/10 01:19:15;;;;;;;;;;;;;;;;;;1044548;28;3861;-49
2022/07/10 01:19:45;;;;;;;;;;;;;;;;;;1043985;28;3157;-49
2022/07/10 01:20:15;;;;;;;;;;;;;;;;;;1044516;28;3835;-53
2022/07/10 01:20:46;;;;;;;;;;;;;;;;;;1044662;28;2314;-51
2022/07/10 01:21:35;;;;;;;;;;;;;;;;;;1044812;28;3930;-51
2022/07/10 01:22:05;;;;;;;;;;;;;;;;;;1045204;28;3820;-52
2022/07/10 01:22:36;;;;;;;;;;;;;;;;;;1044272;28;2251;-54
2022/07/10 01:23:06;;;;;;;;;;;;;;;;;;1044654;28;3788;-53
2022/07/10 01:23:36;;;;;;;;;;;;;;;;;;1043957;28;1583;-53
2022/07/10 01:24:08;;;;;;;;;;;;;;;;;;1044816;28;4042;-50
2022/07/10 01:24:38;;;;;;;;;;;;;;;;;;1040775;28;3297;-55
2022/07/10 01:25:10;;;;;;;;;;;;;;;;;;1039107;28;3868;-50
2022/07/10 01:25:41;;;;;;;;;;;;;;;;;;1038200;28;4148;-53
2022/07/10 01:26:11;;;;;;;;;;;;;;;;;;1038618;28;3826;-51
2022/07/10 01:26:42;;;;;;;;;;;;;;;;;;1043885;28;3640;-50
2022/07/10 01:27:13;;;;;;;;;;;;;;;;;;1044598;28;3976;-48
2022/07/10 01:27:43;;;;;;;;;;;;;;;;;;1043775;28;3378;-50
2022/07/10 01:28:14;;;;;;;;;;;;;;;;;;1044574;28;4436;-51
2022/07/10 01:28:44;;;;;;;;;;;;;;;;;;1045655;28;2032;-53
2022/07/10 01:29:15;;;;;;;;;;;;;;;;;;1043477;28;3789;-52
2022/07/10 01:29:45;;;;;;;;;;;;;;;;;;1045139;28;3664;-52
2022/07/10 01:30:16;;;;;;;;;;;;;;;;;;1045663;28;4123;-53
2022/07/10 01:30:46;;;;;;;;;;;;;;;;;;1046325;28;1396;-50
2022/07/10 01:31:18;;;;;;;;;;;;;;;;;;1044186;28;3891;-53
2022/07/10 01:31:48;;;;;;;;;;;;;;;;;;1045909;28;1796;-53
2022/07/10 01:32:19;;;;;;;;;;;;;;;;;;1044856;28;3945;-54
2022/07/10 01:32:49;;;;;;;;;;;;;;;;;;1041847;28;2829;-50
2022/07/10 01:33:26;;;;;;;;;;;;;;;;;;1036551;28;4828;-52
2022/07/10 01:33:56;;;;;;;;;;;;;;;;;;1034477;28;5444;-48
2022/07/10 01:34:27;;;;;;;;;;;;;;;;;;1038416;28;1804;-55
2022/07/10 01:34:57;;;;;;;;;;;;;;;;;;1040387;28;4493;-51
2022/07/10 01:35:27;;;;;;;;;;;;;;;;;;1042393;28;2215;-51
2022/07/10 01:35:58;;;;;;;;;;;;;;;;;;1040471;28;4202;-49
2022/07/10 01:36:29;;;;;;;;;;;;;;;;;;1033347;28;3192;-51
2022/07/10 01:36:59;;;;;;;;;;;;;;;;;;1033397;28;4246;-53
2022/07/10 01:37:30;;;;;;;;;;;;;;;;;;1032344;28;4816;-50
2022/07/10 01:38:00;;;;;;;;;;;;;;;;;;1033448;28;4404;-51
2022/07/10 01:38:30;;;;;;;;;;;;;;;;;;1040361;28;2626;-52
2022/07/10 01:39:00;;;;;;;;;;;;;;;;;;1040580;28;3825;-50
2022/07/10 01:39:31;;;;;;;;;;;;;;;;;;1043290;28;2356;-49
2022/07/10 01:40:01;;;;;;;;;;;;;;;;;;1044250;28;4063;-53
2022/07/10 01:40:31;;;;;;;;;;;;;;;;;;1044529;28;2507;-49
2022/07/10 01:41:02;;;;;;;;;;;;;;;;;;1044713;28;3942;-51
2022/07/10 01:41:32;;;;;;;;;;;;;;;;;;1039524;28;4040;-50
2022/07/10 01:42:02;;;;;;;;;;;;;;;;;;1040049;28;4308;-51
2022/07/10 01:42:33;;;;;;;;;;;;;;;;;;1040315;28;1744;-48
2022/07/10 01:43:03;;;;;;;;;;;;;;;;;;1040587;28;3975;-51
2022/07/10 01:43:36;;;;;;;;;;;;;;;;;;1046259;28;1622;-52
2022/07/10 01:44:07;;;;;;;;;;;;;;;;;;1045001;28;3990;-50
2022/07/10 01:44:37;;;;;;;;;;;;;;;;;;1039913;28;1588;-54
2022/07/10 01:45:08;;;;;;;;;;;;;;;;;;1039785;28;3971;-48
2022/07/10 01:45:39;;;;;;;;;;;;;;;;;;1039449;28;2230;-50
2022/07/10 01:46:12;;;;;;;;;;;;;;;;;;1040202;28;4289;-52
2022/07/10 01:46:46;;;;;;;;;;;;;;;;;;1044978;28;3171;-49
2022/07/10 01:47:16;;;;;;;;;;;;;;;;;;1039437;28;4034;-53
2022/07/10 01:47:46;;;;;;;;;;;;;;;;;;1040988;28;1717;-51
2022/07/10 01:48:17;;;;;;;;;;;;;;;;;;1038456;28;4240;-49
2022/07/10 01:48:47;;;;;;;;;;;;;;;;;;1036733;28;3505;-49
2022/07/10 01:49:17;;;;;;;;;;;;;;;;;;1040658;28;4178;-53
2022/07/10 01:49:48;;;;;;;;;;;;;;;;;;1037837;28;1652;-55
2022/07/10 01:50:18;;;;;;;;;;;;;;;;;;1036990;28;3937;-54
2022/07/10 01:50:55;;;;;;;;;;;;;;;;;;1038904;28;3282;-50
2022/07/10 01:51:32;;;;;;;;;;;;;;;;;;1041596;28;3931;-53
2022/07/10 01:52:10;;;;;;;;;;;;;;;;;;1041950;28;3772;-53
2022/07/10 01:52:40;;;;;;;;;;;;;;;;;;1038507;28;1522;-51
2022/07/10 01:53:10;;;;;;;;;;;;;;;;;;1037005;28;4109;-51
2022/07/10 01:53:41;;;;;;;;;;;;;;;;;;1039146;28;1591;-54
2022/07/10 01:54:11;;;;;;;;;;;;;;;;;;1038841;28;3961;-52
2022/07/10 01:54:41;;;;;;;;;;;;;;;;;;1039917;28;3185;-52
2022/07/10 01:55:11;;;;;;;;;;;;;;;;;;1039692;28;3784;-55
2022/07/10 01:55:42;;;;;;;;;;;;;;;;;;1042172;28;1784;-50
2022/07/10 01:56:13;;;;;;;;;;;;;;;;;;1040127;28;3803;-49
2022/07/10 01:56:43;;;;;;;;;;;;;;;;;;1039682;28;3643;-47
2022/07/10 01:57:13;;;;;;;;;;;;;;;;;;1038967;28;3882;-49
2022/07/10 01:57:43;;;;;;;;;;;;;;;;;;1040646;28;3365;-53
2022/07/10 01:58:14;;;;;;;;;;;;;;;;;;1040100;28;3953;-53
2022/07/10 01:58:51;;;;;;;;;;;;;;;;;;1040919;28;3132;-53
2022/07/10 01:59:21;;;;;;;;;;;;;;;;;;1034266;28;4952;-50
2022/07/10 01:59:52;;;;;;;;;;;;;;;;;;1036071;28;3217;-48
2022/07/10 02:00:22;;;;;;;;;;;;;;;;;;1034223;28;3774;-52
2022/07/10 02:00:52;;;;;;;;;;;;;;;;;;1039950;28;5919;-53
2022/07/10 02:01:22;;;;;;;;;;;;;;;;;;1040391;28;2150;-50
2022/07/10 02:01:53;;;;;;;;;;;;;;;;;;1040493;28;4257;-51
2022/07/10 02:02:23;;;;;;;;;;;;;;;;;;1041113;28;3611;-53
2022/07/10 02:04:40;;;;;;;;;;;;;;;;;;1040794;28;3892;-49
2022/07/10 02:05:11;;;;;;;;;;;;;;;;;;1041197;28;4383;-51
2022/07/10 02:05:41;;;;;;;;;;;;;;;;;;1040612;28;3559;-52
2022/07/10 02:06:11;;;;;;;;;;;;;;;;;;1040919;28;3805;-52
2022/07/10 02:06:42;;;;;;;;;;;;;;;;;;1037193;28;2686;-53
2022/07/10 02:07:13;;;;;;;;;;;;;;;;;;1036401;28;4381;-55
2022/07/10 02:07:44;;;;;;;;;;;;;;;;;;1041996;28;1760;-53
2022/07/10 02:08:14;;;;;;;;;;;;;;;;;;1042054;28;3839;-53
2022/07/10 02:08:44;;;;;;;;;;;;;;;;;;1040454;28;2391;-50
2022/07/10 02:09:15;;;;;;;;;;;;;;;;;;1040296;28;4063;-52
2022/07/10 02:09:45;;;;;;;;;;;;;;;;;;1040434;28;3382;-51
2022/07/10 02:10:15;;;;;;;;;;;;;;;;;;1042001;28;4047;-51
2022/07/10 02:10:46;;;;;;;;;;;;;;;;;;1041433;28;1565;-50
2022/07/10 02:11:16;;;;;;;;;;;;;;;;;;1041707;28;3859;-53
2022/07/10 02:11:47;;;;;;;;;;;;;;;;;;1042001;28;1802;-51
2022/07/10 02:12:17;;;;;;;;;;;;;;;;;;1040501;28;3756;-52
2022/07/10 02:12:47;;;;;;;;;;;;;;;;;;1040211;28;3320;-51
2022/07/10 02:13:20;;;;;;;;;;;;;;;;;;1041307;28;3888;-53
2022/07/10 02:13:50;;;;;;;;;;;;;;;;;;1040989;28;2242;-51
2022/07/10 02:14:20;;;;;;;;;;;;;;;;;;1037923;28;3853;-49
2022/07/10 02:15:00;;;;;;;;;;;;;;;;;;1040285;28;4383;-53
2022/07/10 02:15:30;;;;;;;;;;;;;;;;;;1039285;28;3467;-51
2022/07/10 02:16:00;;;;;;;;;;;;;;;;;;1040627;28;4170;-54
2022/07/10 02:16:30;;;;;;;;;;;;;;;;;;1040262;28;2611;-50
2022/07/10 02:17:01;;;;;;;;;;;;;;;;;;1039683;28;4438;-50
2022/07/10 02:17:31;;;;;;;;;;;;;;;;;;1041219;28;1610;-52
2022/07/10 02:18:01;;;;;;;;;;;;;;;;;;1040097;28;4428;-52
2022/07/10 02:18:32;;;;;;;;;;;;;;;;;;1041744;28;3136;-49
2022/07/10 02:19:03;;;;;;;;;;;;;;;;;;1039878;28;4081;-51
2022/07/10 02:19:33;;;;;;;;;;;;;;;;;;1041766;28;2724;-48
2022/07/10 02:20:04;;;;;;;;;;;;;;;;;;1040554;28;3973;-49
2022/07/10 02:20:35;;;;;;;;;;;;;;;;;;1039907;28;3493;-49
2022/07/10 02:21:05;;;;;;;;;;;;;;;;;;1039406;28;4000;-48
2022/07/10 02:21:35;;;;;;;;;;;;;;;;;;1041006;28;1680;-53
2022/07/10 02:22:05;;;;;;;;;;;;;;;;;;1037713;28;3926;-53
2022/07/10 02:22:36;;;;;;;;;;;;;;;;;;1040917;28;3617;-52
2022/07/10 02:23:06;;;;;;;;;;;;;;;;;;1039540;28;3812;-51
2022/07/10 02:23:39;;;;;;;;;;;;;;;;;;1040980;28;4019;-48
2022/07/10 02:24:09;;;;;;;;;;;;;;;;;;1039700;28;3857;-49
2022/07/10 02:24:39;;;;;;;;;;;;;;;;;;1041255;28;1881;-51
2022/07/10 02:25:10;;;;;;;;;;;;;;;;;;1040203;28;3861;-49
2022/07/10 02:25:40;;;;;;;;;;;;;;;;;;1042068;28;3758;-49
2022/07/10 02:26:10;;;;;;;;;;;;;;;;;;1039272;28;3807;-50
2022/07/10 02:26:41;;;;;;;;;;;;;;;;;;1040736;28;1737;-48
2022/07/10 02:27:14;;;;;;;;;;;;;;;;;;1039600;28;4041;-51
2022/07/10 02:27:44;;;;;;;;;;;;;;;;;;1040978;28;3692;-53
2022/07/10 02:28:14;;;;;;;;;;;;;;;;;;1045607;28;3875;-51
2022/07/10 02:28:45;;;;;;;;;;;;;;;;;;1041942;28;3473;-47
2022/07/10 02:29:15;;;;;;;;;;;;;;;;;;1040903;28;4252;-52
2022/07/10 02:29:46;;;;;;;;;;;;;;;;;;1042561;28;3332;-49
2022/07/10 02:30:16;;;;;;;;;;;;;;;;;;1039009;28;3783;-48
2022/07/10 02:30:46;;;;;;;;;;;;;;;;;;1038663;28;3264;-50
2022/07/10 02:31:17;;;;;;;;;;;;;;;;;;1037263;28;3822;-51
2022/07/10 02:31:47;;;;;;;;;;;;;;;;;;1040147;28;3701;-53
2022/07/10 02:32:17;;;;;;;;;;;;;;;;;;1040414;28;4244;-50
2022/07/10 02:32:47;;;;;;;;;;;;;;;;;;1040826;28;3657;-53
2022/07/10 02:33:18;;;;;;;;;;;;;;;;;;1039059;28;4080;-48
2022/07/10 02:33:48;;;;;;;;;;;;;;;;;;1041128;28;2555;-49
2022/07/10 02:34:18;;;;;;;;;;;;;;;;;;1035201;28;4411;-53
2022/07/10 02:34:49;;;;;;;;;;;;;;;;;;1042150;28;1686;-51
2022/07/10 02:35:19;;;;;;;;;;;;;;;;;;1041360;28;3973;-46
2022/07/10 02:35:49;;;;;;;;;;;;;;;;;;1037688;28;3065;-47
2022/07/10 02:36:19;;;;;;;;;;;;;;;;;;1041279;28;4051;-51
2022/07/10 02:36:50;;;;;;;;;;;;;;;;;;1042174;28;1922;-49
2022/07/10 02:37:20;;;;;;;;;;;;;;;;;;1041195;28;3886;-53
2022/07/10 02:37:50;;;;;;;;;;;;;;;;;;1040314;28;3072;-54
2022/07/10 02:38:21;;;;;;;;;;;;;;;;;;1039816;28;3943;-52
2022/07/10 02:38:51;;;;;;;;;;;;;;;;;;1039181;28;3871;-51
2022/07/10 02:39:23;;;;;;;;;;;;;;;;;;1038982;28;4348;-49
2022/07/10 02:39:53;;;;;;;;;;;;;;;;;;1040071;28;4422;-50
2022/07/10 02:40:23;;;;;;;;;;;;;;;;;;1040426;28;3861;-48
2022/07/10 02:40:54;;;;;;;;;;;;;;;;;;1039907;28;4404;-51
2022/07/10 02:41:24;;;;;;;;;;;;;;;;;;1040852;28;1818;-51
2022/07/10 02:41:55;;;;;;;;;;;;;;;;;;1040473;28;4263;-50
2022/07/10 02:42:25;;;;;;;;;;;;;;;;;;1040534;28;2802;-50
2022/07/10 02:42:55;;;;;;;;;;;;;;;;;;1040375;28;3973;-51
2022/07/10 02:43:26;;;;;;;;;;;;;;;;;;1040809;28;3761;-53
2022/07/10 02:43:56;;;;;;;;;;;;;;;;;;1039680;28;3819;-49
2022/07/10 02:44:26;;;;;;;;;;;;;;;;;;1041703;28;1654;-47
2022/07/10 02:44:57;;;;;;;;;;;;;;;;;;1039781;28;4061;-49
2022/07/10 02:45:27;;;;;;;;;;;;;;;;;;1040716;28;2822;-49
2022/07/10 02:45:57;;;;;;;;;;;;;;;;;;1039810;28;3985;-52
2022/07/10 02:46:27;;;;;;;;;;;;;;;;;;1041250;28;1380;-48
2022/07/10 02:46:58;;;;;;;;;;;;;;;;;;1039100;28;3998;-53
2022/07/10 02:47:28;;;;;;;;;;;;;;;;;;1045605;28;2209;-50
2022/07/10 02:47:58;;;;;;;;;;;;;;;;;;1040373;28;3901;-49
2022/07/10 02:48:29;;;;;;;;;;;;;;;;;;1041566;28;3013;-51
2022/07/10 02:48:59;;;;;;;;;;;;;;;;;;1036688;28;4359;-50
2022/07/10 02:49:29;;;;;;;;;;;;;;;;;;1040906;28;3923;-51
2022/07/10 02:50:00;;;;;;;;;;;;;;;;;;1040424;28;3941;-52
2022/07/10 02:50:30;;;;;;;;;;;;;;;;;;1040148;28;3764;-49
2022/07/10 02:51:07;;;;;;;;;;;;;;;;;;1040664;28;3957;-48
2022/07/10 02:51:44;;;;;;;;;;;;;;;;;;1044903;28;1587;-50
2022/07/10 02:52:21;;;;;;;;;;;;;;;;;;1041018;28;4009;-50
2022/07/10 02:52:51;;;;;;;;;;;;;;;;;;1041547;28;2242;-50
2022/07/10 02:53:22;;;;;;;;;;;;;;;;;;1037378;28;4011;-48
2022/07/10 02:53:52;;;;;;;;;;;;;;;;;;1037632;28;1589;-50
2022/07/10 02:54:22;;;;;;;;;;;;;;;;;;1039520;28;4031;-49
2022/07/10 02:54:52;;;;;;;;;;;;;;;;;;1039818;28;3820;-51
2022/07/10 02:55:23;;;;;;;;;;;;;;;;;;1045284;28;3851;-49
2022/07/10 02:55:53;;;;;;;;;;;;;;;;;;1043575;28;3916;-50
2022/07/10 02:56:23;;;;;;;;;;;;;;;;;;1044211;28;3808;-52
2022/07/10 02:56:53;;;;;;;;;;;;;;;;;;1040032;28;3896;-52
2022/07/10 02:57:24;;;;;;;;;;;;;;;;;;1041483;28;1854;-47
2022/07/10 02:57:54;;;;;;;;;;;;;;;;;;1038402;28;3994;-50
2022/07/10 02:58:25;;;;;;;;;;;;;;;;;;1039841;28;2965;-48
2022/07/10 02:59:02;;;;;;;;;;;;;;;;;;1039944;28;3836;-50
2022/07/10 02:59:32;;;;;;;;;;;;;;;;;;1041651;28;2998;-52
2022/07/10 03:00:03;;;;;;;;;;;;;;;;;;1040879;28;3920;-53
2022/07/10 03:00:33;;;;;;;;;;;;;;;;;;1037472;28;2601;-51
2022/07/10 03:01:03;;;;;;;;;;;;;;;;;;1038946;28;4423;-51
2022/07/10 03:01:33;;;;;;;;;;;;;;;;;;1040243;28;1680;-50
2022/07/10 03:02:04;;;;;;;;;;;;;;;;;;1038498;28;4033;-48
2022/07/10 03:02:34;;;;;;;;;;;;;;;;;;1039005;28;2257;-53
2022/07/10 03:03:05;;;;;;;;;;;;;;;;;;1035601;28;4200;-52
2022/07/10 03:03:35;;;;;;;;;;;;;;;;;;1036685;28;2900;-48
2022/07/10 03:04:05;;;;;;;;;;;;;;;;;;1037111;28;4050;-50
2022/07/10 03:04:35;;;;;;;;;;;;;;;;;;1041924;28;1695;-52
2022/07/10 03:05:06;;;;;;;;;;;;;;;;;;1043562;28;4122;-51
2022/07/10 03:05:36;;;;;;;;;;;;;;;;;;1045808;28;1638;-51
2022/07/10 03:06:06;;;;;;;;;;;;;;;;;;1041114;28;3911;-52
2022/07/10 03:06:37;;;;;;;;;;;;;;;;;;1042417;28;1616;-50
2022/07/10 03:07:07;;;;;;;;;;;;;;;;;;1041274;28;4038;-46
2022/07/10 03:07:37;;;;;;;;;;;;;;;;;;1041996;28;1675;-48
2022/07/10 03:08:08;;;;;;;;;;;;;;;;;;1043734;28;4209;-48
2022/07/10 03:08:38;;;;;;;;;;;;;;;;;;1043352;28;3542;-51
2022/07/10 03:09:08;;;;;;;;;;;;;;;;;;1043764;28;3773;-49
2022/07/10 03:09:39;;;;;;;;;;;;;;;;;;1044395;28;1939;-50
2022/07/10 03:10:10;;;;;;;;;;;;;;;;;;1045900;28;4279;-51
2022/07/10 03:10:40;;;;;;;;;;;;;;;;;;1045536;28;3746;-48
2022/07/10 03:11:11;;;;;;;;;;;;;;;;;;1044382;28;4036;-51
2022/07/10 03:11:41;;;;;;;;;;;;;;;;;;1044310;28;2996;-47
2022/07/10 03:12:18;;;;;;;;;;;;;;;;;;1044864;28;3860;-49
2022/07/10 03:12:48;;;;;;;;;;;;;;;;;;1042506;28;1704;-49
2022/07/10 03:13:18;;;;;;;;;;;;;;;;;;1039370;28;4245;-51
2022/07/10 03:13:49;;;;;;;;;;;;;;;;;;1041753;28;1695;-52
2022/07/10 03:14:19;;;;;;;;;;;;;;;;;;1039056;28;3797;-51
2022/07/10 03:14:49;;;;;;;;;;;;;;;;;;1045774;28;2214;-47
2022/07/10 03:15:20;;;;;;;;;;;;;;;;;;1042496;28;3966;-50
2022/07/10 03:15:53;;;;;;;;;;;;;;;;;;1043339;28;2582;-47
2022/07/10 03:16:23;;;;;;;;;;;;;;;;;;1044138;28;3839;-46
2022/07/10 03:16:53;;;;;;;;;;;;;;;;;;1045530;28;4135;-49
2022/07/10 03:17:23;;;;;;;;;;;;;;;;;;1044943;28;4441;-48
2022/07/10 03:17:54;;;;;;;;;;;;;;;;;;1044715;28;3958;-52
2022/07/10 03:18:24;;;;;;;;;;;;;;;;;;1042686;28;3948;-50
2022/07/10 03:18:54;;;;;;;;;;;;;;;;;;1045086;28;4080;-52
2022/07/10 03:19:25;;;;;;;;;;;;;;;;;;1045660;28;1688;-53
2022/07/10 03:19:55;;;;;;;;;;;;;;;;;;1045006;28;4628;-50
2022/07/10 03:20:25;;;;;;;;;;;;;;;;;;1043305;28;4208;-49
2022/07/10 03:20:56;;;;;;;;;;;;;;;;;;1045254;28;4068;-49
2022/07/10 03:21:26;;;;;;;;;;;;;;;;;;1043503;28;3058;-51
2022/07/10 03:21:56;;;;;;;;;;;;;;;;;;1043683;28;3977;-51
2022/07/10 03:22:28;;;;;;;;;;;;;;;;;;1044530;28;3913;-49
2022/07/10 03:22:58;;;;;;;;;;;;;;;;;;1045708;28;5350;-47
2022/07/10 03:23:28;;;;;;;;;;;;;;;;;;1044949;28;1695;-52
2022/07/10 03:23:58;;;;;;;;;;;;;;;;;;1045076;28;4054;-49
2022/07/10 03:24:29;;;;;;;;;;;;;;;;;;1045170;28;1424;-49
2022/07/10 03:24:59;;;;;;;;;;;;;;;;;;1043454;28;3905;-54
2022/07/10 03:25:30;;;;;;;;;;;;;;;;;;1044586;28;1906;-50
2022/07/10 03:26:00;;;;;;;;;;;;;;;;;;1044275;28;4291;-51
2022/07/10 03:26:30;;;;;;;;;;;;;;;;;;1043556;28;3712;-52
2022/07/10 03:27:00;;;;;;;;;;;;;;;;;;1044174;28;4035;-47
2022/07/10 03:27:31;;;;;;;;;;;;;;;;;;1041448;28;3696;-48
2022/07/10 03:28:01;;;;;;;;;;;;;;;;;;1039854;28;3977;-50
2022/07/10 03:28:31;;;;;;;;;;;;;;;;;;1040006;28;3826;-49
2022/07/10 03:29:01;;;;;;;;;;;;;;;;;;1036374;28;3907;-50
2022/07/10 03:29:32;;;;;;;;;;;;;;;;;;1045022;28;1354;-48
2022/07/10 03:30:03;;;;;;;;;;;;;;;;;;1043743;28;4442;-52
2022/07/10 03:30:33;;;;;;;;;;;;;;;;;;1044019;28;3342;-51
2022/07/10 03:31:03;;;;;;;;;;;;;;;;;;1044154;28;4054;-50
2022/07/10 03:31:34;;;;;;;;;;;;;;;;;;1045638;28;1691;-49
2022/07/10 03:32:04;;;;;;;;;;;;;;;;;;1043902;28;3979;-54
2022/07/10 03:32:35;;;;;;;;;;;;;;;;;;1044671;28;3736;-53
2022/07/10 03:33:05;;;;;;;;;;;;;;;;;;1043450;28;4414;-47
2022/07/10 03:33:35;;;;;;;;;;;;;;;;;;1046307;28;2217;-52
2022/07/10 03:34:05;;;;;;;;;;;;;;;;;;1045056;28;4022;-50
2022/07/10 03:34:36;;;;;;;;;;;;;;;;;;1046428;28;1919;-49
2022/07/10 03:35:07;;;;;;;;;;;;;;;;;;1043154;28;4076;-54
2022/07/10 03:35:37;;;;;;;;;;;;;;;;;;1039192;28;2729;-51
2022/07/10 03:36:07;;;;;;;;;;;;;;;;;;1038770;28;4099;-53